Archival Weather

Chicago O'Hare International

Chicago, Illinois (KORD)

Report from: Wednesday, August 23, 2023 8:51 PM CDT
Current time: Monday, July 22, 2024 5:40 AM CDT

Current weather – Weather history – Daily summaries
Weather forecast

Temperature32.8°C (91.0°F)
Heat index42.0°C (107.6°F)
Dew point26.1°C (79.0°F)
Winds 12 kts (6.2 m/s, 13.8 mph) West-Southwest (250°)
Wind gusts 18 kts (9.3 m/s, 20.7 mph)
Visibility10 mi. (16.1 km)
Clouds Few clouds 16,000 ft. (4,877 m)
Few clouds 25,000 ft. (7,620 m)
Altimeter29.87 in.Hg (1012 mB)
Relative humidity68 %
Density altitude2,567 ft. (782 m)
Sea-level pressure101.1 kPa (1011 mB, 29.84 in.Hg)
Remarks Automated weather observing station with precipitation discriminator
Flight conditions Visual Meteorological Conditions
Raw dataKORD 240151Z 25012G18KT 10SM FEW160 FEW250 33/26 A2987 RMK AO2 SLP106 T03280261
An error has occurred. This application may no longer respond until reloaded. Reload 🗙